Time;durP1;ratioP1;P1;durP2;ratioP2;P2;SDS_P1;SDS_P2;PMS_P1;PMS_P2;Temp;Humidity;BMP_temperature;BMP_pressure;BME280_temperature;BME280_humidity;BME280_pressure;Samples;Min_cycle;Max_cycle;Signal;HPM_P1;HPM_P2
2022/04/16 00:01:05;;;;;;;21.63;14.55;;;6.30;99.90;;;;;;5013227;28;20128;-87
2022/04/16 00:03:32;;;;;;;20.77;13.93;;;6.30;99.90;;;;;;5030036;28;20128;-87
2022/04/16 00:05:58;;;;;;;26.45;15.20;;;6.20;99.90;;;;;;5019948;28;20060;-88
2022/04/16 00:08:25;;;;;;;22.67;15.48;;;6.20;99.90;;;;;;5032513;28;20049;-87
2022/04/16 00:10:52;;;;;;;21.67;14.45;;;6.10;99.90;;;;;;5032749;28;20526;-87
2022/04/16 00:13:19;;;;;;;23.05;14.75;;;6.10;99.90;;;;;;5032427;28;20063;-88
2022/04/16 00:15:46;;;;;;;25.42;14.80;;;6.00;99.90;;;;;;5047960;28;20049;-88
2022/04/16 00:18:12;;;;;;;27.90;15.70;;;6.00;99.90;;;;;;5016291;28;20051;-87
2022/04/16 00:20:40;;;;;;;26.42;15.05;;;6.00;99.90;;;;;;5032982;28;20064;-87
2022/04/16 00:23:07;;;;;;;29.10;15.88;;;6.00;99.90;;;;;;5031926;28;20755;-88
2022/04/16 00:25:34;;;;;;;27.92;16.70;;;6.00;99.90;;;;;;5050408;28;20045;-87
2022/04/16 00:28:01;;;;;;;25.58;15.85;;;5.90;99.90;;;;;;5032113;28;20441;-88
2022/04/16 00:30:26;;;;;;;31.83;17.48;;;5.90;99.90;;;;;;5044555;28;20490;-87
2022/04/16 00:32:55;;;;;;;29.27;15.68;;;5.90;99.90;;;;;;5015927;28;20052;-87
2022/04/16 00:35:22;;;;;;;32.80;16.95;;;5.80;99.90;;;;;;5032285;28;20135;-87
2022/04/16 00:37:47;;;;;;;32.17;17.83;;;5.80;99.90;;;;;;5032880;28;20044;-87
2022/04/16 00:40:13;;;;;;;28.90;17.65;;;5.80;99.90;;;;;;5032124;28;20051;-87
2022/04/16 00:42:41;;;;;;;33.38;17.55;;;5.80;99.90;;;;;;5050124;28;20407;-87
2022/04/16 00:45:07;;;;;;;30.40;19.30;;;5.70;99.90;;;;;;5046715;28;20048;-89
2022/04/16 00:47:34;;;;;;;37.20;20.08;;;5.70;99.90;;;;;;5015761;28;20398;-87
2022/04/16 00:50:00;;;;;;;29.48;17.23;;;5.70;99.90;;;;;;5015227;28;20061;-87
2022/04/16 00:52:26;;;;;;;28.33;16.85;;;5.70;99.90;;;;;;5031970;28;20043;-87
2022/04/16 00:54:55;;;;;;;39.65;19.77;;;5.60;99.90;;;;;;5049626;28;20049;-87
2022/04/16 00:57:23;;;;;;;33.83;19.58;;;5.60;99.90;;;;;;5016262;28;20064;-87
2022/04/16 00:59:49;;;;;;;34.15;20.25;;;5.60;99.90;;;;;;5031880;28;20049;-87
2022/04/16 01:02:15;;;;;;;37.38;19.85;;;5.50;99.90;;;;;;5049702;28;20455;-87
2022/04/16 01:04:41;;;;;;;35.78;20.73;;;5.50;99.90;;;;;;5034779;28;20048;-87
2022/04/16 01:07:07;;;;;;;41.92;20.20;;;5.40;99.90;;;;;;5035517;28;20045;-88
2022/04/16 01:09:33;;;;;;;31.63;19.15;;;5.50;99.90;;;;;;5053338;28;20040;-87
2022/04/16 01:12:00;;;;;;;41.92;21.50;;;5.50;99.90;;;;;;5035166;28;20094;-88
2022/04/16 01:14:26;;;;;;;34.10;18.27;;;5.50;99.90;;;;;;5035469;28;20437;-87
2022/04/16 01:16:56;;;;;;;39.15;20.60;;;5.30;99.90;;;;;;5053338;28;20513;-87
2022/04/16 01:19:23;;;;;;;41.22;19.88;;;5.30;99.90;;;;;;5051879;28;20053;-88
2022/04/16 01:21:50;;;;;;;43.45;20.23;;;5.20;99.90;;;;;;5035370;28;20393;-87
2022/04/16 01:24:15;;;;;;;44.28;21.42;;;5.40;99.90;;;;;;5053243;28;20049;-87
2022/04/16 01:26:41;;;;;;;41.47;21.38;;;5.20;99.90;;;;;;5035163;28;20402;-87
2022/04/16 01:29:10;;;;;;;40.08;22.80;;;5.20;99.90;;;;;;5052668;28;20040;-88
2022/04/16 01:31:36;;;;;;;45.63;22.58;;;5.10;99.90;;;;;;5052931;28;20106;-87
2022/04/16 01:34:03;;;;;;;36.92;21.20;;;5.10;99.90;;;;;;5018354;28;20052;-87
2022/04/16 01:36:30;;;;;;;45.88;23.35;;;5.10;99.90;;;;;;5018092;28;20151;-87
2022/04/16 01:38:57;;;;;;;46.00;23.80;;;5.20;99.90;;;;;;5052456;28;20120;-88
2022/04/16 01:41:30;;;;;;;55.25;25.63;;;5.10;99.90;;;;;;5034619;28;20536;-87
2022/04/16 01:43:56;;;;;;;43.30;23.80;;;5.20;99.90;;;;;;5051570;28;20058;-87
2022/04/16 01:46:22;;;;;;;47.75;24.10;;;5.30;99.90;;;;;;5034512;28;20494;-87
2022/04/16 01:48:49;;;;;;;40.97;22.88;;;5.50;99.90;;;;;;5034903;28;20491;-87
2022/04/16 01:51:17;;;;;;;48.40;23.60;;;5.50;99.90;;;;;;5034095;28;20102;-87
2022/04/16 01:53:44;;;;;;;39.75;22.13;;;5.60;99.90;;;;;;5052327;28;20136;-88
2022/04/16 01:56:10;;;;;;;40.42;23.85;;;5.50;99.90;;;;;;5052544;28;20457;-87
2022/04/16 01:58:38;;;;;;;48.58;23.90;;;5.60;99.90;;;;;;5043392;28;20375;-86
2022/04/16 02:01:05;;;;;;;44.80;23.70;;;5.60;99.90;;;;;;5051874;28;20049;-87
2022/04/16 02:03:31;;;;;;;39.88;22.42;;;5.60;99.90;;;;;;5051877;28;20119;-87
2022/04/16 02:05:57;;;;;;;47.08;22.80;;;5.60;99.90;;;;;;5033730;28;20495;-87
2022/04/16 02:08:23;;;;;;;38.50;23.65;;;5.50;99.90;;;;;;5034906;28;20045;-87
2022/04/16 02:10:49;;;;;;;45.95;23.92;;;5.50;99.90;;;;;;5016994;28;20053;-88
2022/04/16 02:13:14;;;;;;;46.03;23.70;;;5.40;99.90;;;;;;5034138;28;20047;-88
2022/04/16 02:15:40;;;;;;;47.60;24.23;;;5.40;99.90;;;;;;5051211;28;20044;-87
2022/04/16 02:18:06;;;;;;;39.05;21.85;;;5.30;99.90;;;;;;5034490;28;20502;-88
2022/04/16 02:20:32;;;;;;;54.72;24.30;;;5.20;99.90;;;;;;5017417;28;20041;-87
2022/04/16 02:22:57;;;;;;;44.20;22.63;;;5.20;99.90;;;;;;5034482;28;20111;-87
2022/04/16 02:25:26;;;;;;;49.13;25.30;;;5.20;99.90;;;;;;5033738;28;20052;-87
2022/04/16 02:27:52;;;;;;;49.50;25.00;;;5.20;99.90;;;;;;5016771;28;20057;-87
2022/04/16 02:30:18;;;;;;;41.15;22.35;;;5.10;99.90;;;;;;5034426;28;20151;-87
2022/04/16 02:32:47;;;;;;;45.95;24.63;;;5.10;99.90;;;;;;5017494;28;20372;-87
2022/04/16 02:35:14;;;;;;;44.50;22.98;;;5.20;99.90;;;;;;5033727;28;20414;-87
2022/04/16 02:37:40;;;;;;;43.50;22.42;;;5.00;99.90;;;;;;5034140;28;20041;-87
2022/04/16 02:40:06;;;;;;;44.60;22.30;;;5.00;99.90;;;;;;5017817;28;20044;-87
2022/04/16 02:42:36;;;;;;;54.05;25.75;;;4.90;99.90;;;;;;5017706;28;20118;-87
2022/04/16 02:47:53;;;;;;;39.70;21.65;;;4.80;99.90;;;;;;5050021;28;20056;-87
2022/04/16 02:50:19;;;;;;;41.35;23.50;;;4.80;99.90;;;;;;5041976;28;20056;-87
2022/04/16 02:52:48;;;;;;;53.78;24.80;;;4.70;99.90;;;;;;5033973;28;20048;-87
2022/04/16 02:55:15;;;;;;;47.25;24.55;;;4.70;99.90;;;;;;5034916;28;20056;-87
2022/04/16 02:57:44;;;;;;;40.85;23.25;;;4.60;99.90;;;;;;5054505;28;20154;-88
2022/04/16 03:00:11;;;;;;;47.13;24.67;;;4.60;99.90;;;;;;5037009;28;20072;-87
2022/04/16 03:02:37;;;;;;;55.25;26.65;;;4.60;99.90;;;;;;5036902;28;20052;-88
2022/04/16 03:05:06;;;;;;;61.33;27.08;;;4.50;99.90;;;;;;5055389;28;20045;-87
2022/04/16 03:07:33;;;;;;;62.20;28.27;;;4.50;99.90;;;;;;5055498;28;20124;-88
2022/04/16 03:09:58;;;;;;;60.92;27.67;;;4.50;99.90;;;;;;5054630;28;20049;-86
2022/04/16 03:12:24;;;;;;;57.90;26.73;;;4.70;99.90;;;;;;5056059;28;20090;-87
2022/04/16 03:17:35;;;;;;;71.20;27.50;;;4.60;99.90;;;;;;5035972;28;20102;-87
2022/04/16 03:20:07;;;;;;;64.55;28.02;;;4.60;99.90;;;;;;5052677;28;20465;-87
2022/04/16 03:22:34;;;;;;;60.45;27.15;;;4.50;99.90;;;;;;5034725;28;20037;-87
2022/04/16 03:25:03;;;;;;;73.72;29.83;;;4.60;99.90;;;;;;5051685;28;20060;-87
2022/04/16 03:27:29;;;;;;;75.95;30.48;;;4.50;99.90;;;;;;5015706;28;20044;-87
2022/04/16 03:29:55;;;;;;;66.68;29.77;;;4.50;99.90;;;;;;5042718;28;20045;-87
2022/04/16 03:32:20;;;;;;;70.10;30.98;;;4.40;99.90;;;;;;5032554;28;20414;-88
2022/04/16 03:34:46;;;;;;;69.82;29.70;;;4.50;99.90;;;;;;5032788;28;20282;-88
2022/04/16 03:37:12;;;;;;;66.22;29.05;;;4.50;99.90;;;;;;5050788;28;20059;-87
2022/04/16 03:39:38;;;;;;;70.32;30.42;;;4.50;99.90;;;;;;5016571;28;20045;-89
2022/04/16 03:42:04;;;;;;;73.55;31.98;;;4.60;99.90;;;;;;5032853;28;20077;-88
2022/04/16 03:44:29;;;;;;;82.80;34.20;;;4.60;99.90;;;;;;5050296;28;20081;-87
2022/04/16 03:46:55;;;;;;;86.18;34.42;;;4.70;99.90;;;;;;5050181;28;20500;-88
2022/04/16 03:49:21;;;;;;;80.50;33.28;;;4.90;99.90;;;;;;5032905;28;20813;-87
2022/04/16 03:51:47;;;;;;;78.35;34.65;;;5.20;99.90;;;;;;5024413;28;20095;-87
2022/04/16 03:59:59;;;;;;;65.32;32.08;;;5.50;99.90;;;;;;5049868;28;20053;-87
2022/04/16 04:02:25;;;;;;;69.15;32.20;;;5.70;99.90;;;;;;5032953;28;20049;-87
2022/04/16 04:04:50;;;;;;;54.10;29.55;;;5.70;99.90;;;;;;5032764;28;20036;-88
2022/04/16 04:07:17;;;;;;;65.70;33.95;;;5.80;99.90;;;;;;5040191;28;20545;-87
2022/04/16 04:09:43;;;;;;;70.22;32.90;;;5.90;99.90;;;;;;5016073;28;20041;-87
2022/04/16 04:12:10;;;;;;;63.35;31.17;;;6.00;99.90;;;;;;5050059;28;20048;-89
2022/04/16 04:14:46;;;;;;;57.53;29.85;;;6.10;99.90;;;;;;5032666;28;20037;-87
2022/04/16 04:17:13;;;;;;;55.80;31.30;;;6.20;99.90;;;;;;5014953;28;20052;-87
2022/04/16 04:19:41;;;;;;;59.72;31.35;;;6.20;99.90;;;;;;5032486;28;20041;-87
2022/04/16 04:22:09;;;;;;;53.72;29.48;;;6.30;99.90;;;;;;5032698;28;20044;-88
2022/04/16 04:24:40;;;;;;;47.65;28.58;;;6.40;99.90;;;;;;5040007;28;20530;-88
2022/04/16 04:27:06;;;;;;;54.90;31.00;;;6.40;99.90;;;;;;5014194;28;20056;-88
2022/04/16 04:29:33;;;;;;;50.60;29.00;;;6.50;99.90;;;;;;5029616;28;20049;-88
2022/04/16 04:31:59;;;;;;;49.78;28.70;;;6.50;99.90;;;;;;5041856;28;20420;-88
2022/04/16 04:34:25;;;;;;;47.38;27.48;;;6.60;99.90;;;;;;5013805;28;20041;-87
2022/04/16 04:36:51;;;;;;;44.58;26.48;;;6.70;99.90;;;;;;5049846;28;20080;-88
2022/04/16 04:39:16;;;;;;;44.72;26.98;;;6.60;99.90;;;;;;5051960;28;20091;-88
2022/04/16 04:41:43;;;;;;;48.38;28.27;;;6.70;99.90;;;;;;5035442;28;20033;-88
2022/04/16 04:44:13;;;;;;;36.53;25.30;;;6.80;99.90;;;;;;5035845;28;20419;-89
2022/04/16 04:46:40;;;;;;;37.25;24.25;;;6.80;99.90;;;;;;5036297;28;20045;-88
2022/04/16 04:49:07;;;;;;;36.33;24.48;;;6.80;99.90;;;;;;5020010;28;20052;-88
2022/04/16 04:51:37;;;;;;;32.83;22.00;;;6.90;99.90;;;;;;5035076;28;20080;-88
2022/04/16 04:54:03;;;;;;;37.53;21.80;;;6.90;99.90;;;;;;5035598;28;20575;-88
2022/04/16 04:56:29;;;;;;;32.15;21.27;;;6.90;99.90;;;;;;5035694;28;20037;-88
2022/04/16 04:58:56;;;;;;;31.10;20.67;;;7.00;99.90;;;;;;5035676;28;20102;-87
2022/04/16 05:01:22;;;;;;;31.38;20.15;;;7.10;99.90;;;;;;5053356;28;20391;-87
2022/04/16 05:03:47;;;;;;;29.63;19.58;;;7.10;99.90;;;;;;5052219;28;20051;-87
2022/04/16 05:06:13;;;;;;;27.80;18.60;;;7.10;99.90;;;;;;5035510;28;20049;-87
2022/04/16 05:08:39;;;;;;;26.92;19.23;;;7.20;99.90;;;;;;5035539;28;20135;-87
2022/04/16 05:11:05;;;;;;;27.17;19.08;;;7.20;99.90;;;;;;5018933;28;20045;-87
2022/04/16 05:13:31;;;;;;;26.13;18.35;;;7.20;99.90;;;;;;5035563;28;20041;-87
2022/04/16 05:15:56;;;;;;;27.52;18.13;;;7.40;99.90;;;;;;5027523;28;20037;-87
2022/04/16 05:18:22;;;;;;;27.35;18.98;;;7.30;99.90;;;;;;5035469;28;20060;-87
2022/04/16 05:20:48;;;;;;;29.58;19.35;;;7.40;99.90;;;;;;5019231;28;20055;-88
2022/04/16 05:23:13;;;;;;;27.58;18.88;;;7.60;99.90;;;;;;5035285;28;20048;-88
2022/04/16 05:25:39;;;;;;;28.15;18.58;;;7.50;99.90;;;;;;5052706;28;20386;-87
2022/04/16 05:28:05;;;;;;;28.13;18.65;;;7.70;99.90;;;;;;5035038;28;20513;-88
2022/04/16 05:30:38;;;;;;;26.13;17.58;;;7.50;99.90;;;;;;5027934;28;20037;-88
2022/04/16 05:33:12;;;;;;;29.08;18.48;;;7.50;99.90;;;;;;5028528;28;20052;-88
2022/04/16 05:35:38;;;;;;;28.42;18.17;;;7.60;99.90;;;;;;5032723;28;20079;-88
2022/04/16 05:38:04;;;;;;;25.50;17.13;;;7.60;99.90;;;;;;5016103;28;20040;-87
2022/04/16 05:40:29;;;;;;;26.05;17.58;;;7.70;99.90;;;;;;5052705;28;20080;-87
2022/04/16 05:42:55;;;;;;;27.42;17.35;;;7.70;99.90;;;;;;5051438;28;20067;-87
2022/04/16 05:45:20;;;;;;;25.63;17.45;;;7.80;99.90;;;;;;5035361;28;20055;-87
2022/04/16 05:47:46;;;;;;;25.40;16.25;;;7.80;99.90;;;;;;5034569;28;20140;-87
2022/04/16 05:50:12;;;;;;;30.42;18.02;;;7.90;99.90;;;;;;5033879;28;20132;-88
2022/04/16 05:52:38;;;;;;;23.67;16.33;;;7.90;99.90;;;;;;5035103;28;20178;-87
2022/04/16 05:55:05;;;;;;;25.13;16.45;;;8.00;99.90;;;;;;5034930;28;20049;-89
2022/04/16 05:57:31;;;;;;;25.23;16.73;;;8.10;99.90;;;;;;5019290;28;20052;-88
2022/04/16 05:59:57;;;;;;;20.83;14.95;;;8.20;99.90;;;;;;5055425;28;20471;-87
2022/04/16 06:02:23;;;;;;;22.05;15.13;;;8.20;99.90;;;;;;5041178;28;20044;-88
2022/04/16 06:04:49;;;;;;;23.88;14.95;;;8.30;99.90;;;;;;5052227;28;20136;-88
2022/04/16 06:07:15;;;;;;;22.10;14.45;;;8.60;99.90;;;;;;5030511;28;20232;-88
2022/04/16 06:09:41;;;;;;;24.73;15.50;;;8.50;99.90;;;;;;4997773;28;20059;-88
2022/04/16 06:12:09;;;;;;;23.55;15.10;;;8.60;99.90;;;;;;5032629;28;20030;-87
2022/04/16 06:14:35;;;;;;;25.70;14.55;;;8.40;99.90;;;;;;5014863;28;20107;-88
2022/04/16 06:17:01;;;;;;;25.33;16.25;;;8.30;99.90;;;;;;5007154;28;20049;-88
2022/04/16 06:19:27;;;;;;;24.55;15.45;;;8.50;99.90;;;;;;5014255;28;20045;-88
2022/04/16 06:21:54;;;;;;;21.65;15.23;;;8.20;99.90;;;;;;4999482;28;20064;-88
2022/04/16 06:24:20;;;;;;;22.02;14.63;;;8.20;99.90;;;;;;5033609;28;20045;-88
2022/04/16 06:26:47;;;;;;;24.60;15.27;;;8.20;99.90;;;;;;5015306;28;20551;-89
2022/04/16 06:29:14;;;;;;;27.13;16.90;;;8.20;99.90;;;;;;5033942;28;20057;-89
2022/04/16 06:31:40;;;;;;;24.67;15.30;;;8.20;99.90;;;;;;5033740;28;20044;-89
2022/04/16 06:34:06;;;;;;;25.05;15.48;;;8.20;99.90;;;;;;5017775;28;20403;-88
2022/04/16 06:36:31;;;;;;;28.85;15.98;;;8.30;99.90;;;;;;5033662;28;20057;-88
2022/04/16 06:38:57;;;;;;;28.02;16.88;;;8.30;99.90;;;;;;4998758;28;20135;-88
2022/04/16 06:41:23;;;;;;;24.25;15.63;;;8.40;99.90;;;;;;5032614;28;20068;-89
2022/04/16 06:43:48;;;;;;;23.67;15.27;;;8.60;99.90;;;;;;5016344;28;20136;-88
2022/04/16 06:46:14;;;;;;;24.23;14.95;;;8.50;99.90;;;;;;5015310;28;20061;-88
2022/04/16 06:48:40;;;;;;;24.88;15.27;;;8.60;99.90;;;;;;5014035;28;20085;-91
2022/04/16 06:51:05;;;;;;;23.42;14.77;;;8.60;99.90;;;;;;5014190;28;20034;-88
2022/04/16 06:53:31;;;;;;;23.27;15.07;;;8.70;99.90;;;;;;5006532;28;20056;-88
2022/04/16 06:56:00;;;;;;;25.73;14.07;;;8.70;99.90;;;;;;4997651;28;20128;-88
2022/04/16 06:58:29;;;;;;;21.77;13.95;;;8.80;99.90;;;;;;5013214;28;20064;-88
2022/04/16 07:00:56;;;;;;;22.63;13.57;;;8.80;99.90;;;;;;5011709;28;20049;-88
2022/04/16 07:03:21;;;;;;;20.70;13.38;;;8.90;99.90;;;;;;4995409;28;20430;-88
2022/04/16 07:05:47;;;;;;;22.10;13.73;;;9.00;99.90;;;;;;5001169;28;20049;-89
2022/04/16 07:08:13;;;;;;;21.63;13.65;;;9.00;99.90;;;;;;5043157;28;20051;-88
2022/04/16 07:10:39;;;;;;;19.90;12.90;;;9.10;99.90;;;;;;5043502;28;20045;-90
2022/04/16 07:13:05;;;;;;;25.33;13.07;;;9.20;99.90;;;;;;5018031;28;20096;-88
2022/04/16 07:15:33;;;;;;;19.17;12.73;;;9.30;99.90;;;;;;5017145;28;20084;-87
2022/04/16 07:17:59;;;;;;;19.08;12.95;;;9.40;99.90;;;;;;5033957;28;20057;-88
2022/04/16 07:20:25;;;;;;;22.85;13.10;;;9.40;99.90;;;;;;5034950;28;20375;-88
2022/04/16 07:22:50;;;;;;;18.95;12.73;;;9.60;99.90;;;;;;5018278;28;20044;-88
2022/04/16 07:25:21;;;;;;;21.17;12.80;;;9.60;99.90;;;;;;5034721;28;20041;-88
2022/04/16 07:27:46;;;;;;;20.20;12.88;;;9.70;99.90;;;;;;5030694;28;20053;-89
2022/04/16 07:30:13;;;;;;;20.95;12.32;;;9.90;99.90;;;;;;5014838;28;20061;-89
2022/04/16 07:32:39;;;;;;;20.67;12.90;;;9.90;99.90;;;;;;5041999;28;20045;-89
2022/04/16 07:35:06;;;;;;;18.35;12.05;;;10.10;99.90;;;;;;5051539;28;20048;-89
2022/04/16 07:37:32;;;;;;;17.70;11.80;;;10.10;99.90;;;;;;5052944;28;20099;-88
2022/04/16 07:39:57;;;;;;;18.08;12.13;;;10.20;99.90;;;;;;5034238;28;20087;-89
2022/04/16 07:42:27;;;;;;;18.33;12.20;;;10.30;99.90;;;;;;5035099;28;20051;-89
2022/04/16 07:44:55;;;;;;;18.50;12.88;;;10.60;99.90;;;;;;5016301;28;20518;-89
2022/04/16 07:47:21;;;;;;;19.50;12.50;;;10.50;99.90;;;;;;5051652;28;20486;-89
2022/04/16 07:49:46;;;;;;;23.05;14.43;;;10.60;99.90;;;;;;5034400;28;20071;-89
2022/04/16 07:52:12;;;;;;;21.98;14.90;;;10.70;99.90;;;;;;5034255;28;20063;-89
2022/04/16 07:54:38;;;;;;;16.88;11.80;;;10.70;99.90;;;;;;5033925;28;20044;-89
2022/04/16 07:57:07;;;;;;;17.58;11.90;;;10.80;99.90;;;;;;5018147;28;20071;-89
2022/04/16 07:59:33;;;;;;;16.02;11.43;;;11.10;99.90;;;;;;5034997;28;20051;-89
2022/04/16 08:01:59;;;;;;;17.13;10.95;;;11.10;99.90;;;;;;5034581;28;20045;-89
2022/04/16 08:04:25;;;;;;;16.70;11.07;;;11.30;99.90;;;;;;5033909;28;20076;-89
2022/04/16 08:06:51;;;;;;;15.45;10.43;;;11.30;99.90;;;;;;5017677;28;20183;-89
2022/04/16 08:09:18;;;;;;;15.23;10.32;;;11.70;99.90;;;;;;5034947;28;20103;-89
2022/04/16 08:11:46;;;;;;;14.95;10.02;;;11.90;99.90;;;;;;5014690;28;20041;-89
2022/04/16 08:14:12;;;;;;;17.17;9.65;;;12.00;99.90;;;;;;5022555;28;20083;-89
2022/04/16 08:16:39;;;;;;;13.40;9.50;;;12.10;99.90;;;;;;5055304;28;20056;-89
2022/04/16 08:19:04;;;;;;;11.77;8.15;;;12.20;99.90;;;;;;5047015;28;20513;-90
2022/04/16 08:21:32;;;;;;;13.52;8.88;;;12.30;99.90;;;;;;5022671;28;20045;-89
2022/04/16 08:24:13;;;;;;;11.45;7.75;;;12.40;99.90;;;;;;5038204;28;20127;-89
2022/04/16 08:26:41;;;;;;;13.38;8.35;;;12.40;99.90;;;;;;5038375;28;20474;-90
2022/04/16 08:29:07;;;;;;;11.90;7.63;;;12.60;99.90;;;;;;5054934;28;20120;-90
2022/04/16 08:31:33;;;;;;;9.68;7.32;;;13.70;99.90;;;;;;5037949;28;20049;-91
2022/04/16 08:33:59;;;;;;;10.20;7.43;;;14.70;99.90;;;;;;5038140;28;20106;-90
2022/04/16 08:36:26;;;;;;;11.10;7.20;;;15.50;99.90;;;;;;5017472;28;20057;-91
2022/04/16 08:38:52;;;;;;;10.70;7.00;;;16.10;99.90;;;;;;5022159;28;20053;-90
2022/04/16 08:41:18;;;;;;;10.40;7.30;;;17.00;99.90;;;;;;5022658;28;20371;-91
2022/04/16 08:43:45;;;;;;;10.07;6.35;;;17.60;99.90;;;;;;5038368;28;20075;-90
2022/04/16 08:46:11;;;;;;;10.00;6.95;;;18.30;99.70;;;;;;5022483;28;20075;-91
2022/04/16 08:48:37;;;;;;;10.07;6.40;;;18.90;94.70;;;;;;5038720;28;20081;-91
2022/04/16 08:51:03;;;;;;;10.23;6.50;;;19.60;89.00;;;;;;5038755;28;20041;-91
2022/04/16 08:53:29;;;;;;;10.02;6.05;;;20.00;78.60;;;;;;5021506;28;20049;-91
2022/04/16 08:55:54;;;;;;;8.20;6.05;;;20.10;71.20;;;;;;5018588;28;20063;-91
2022/04/16 08:58:20;;;;;;;10.20;6.05;;;20.30;68.30;;;;;;5038271;28;20124;-91
2022/04/16 09:00:47;;;;;;;7.82;5.43;;;20.40;68.00;;;;;;5022252;28;20055;-90
2022/04/16 09:03:14;;;;;;;8.63;5.07;;;20.30;66.60;;;;;;5054252;28;20503;-90
2022/04/16 09:05:39;;;;;;;7.88;4.97;;;20.50;65.70;;;;;;5038060;28;20056;-91
2022/04/16 09:08:05;;;;;;;5.55;4.05;;;21.10;62.80;;;;;;5012136;28;20080;-90
2022/04/16 09:10:33;;;;;;;5.55;3.95;;;21.60;59.90;;;;;;5054888;28;20049;-90
2022/04/16 09:13:01;;;;;;;8.07;4.00;;;22.00;56.60;;;;;;5021104;28;20044;-89
2022/04/16 09:15:28;;;;;;;3.50;2.80;;;22.30;53.70;;;;;;5037772;28;20578;-89
2022/04/16 09:17:59;;;;;;;13.38;3.47;;;22.50;51.90;;;;;;5020364;28;20060;-89
2022/04/16 09:20:31;;;;;;;4.07;2.50;;;22.70;50.20;;;;;;5037917;28;20474;-89
2022/04/16 09:22:56;;;;;;;4.88;2.97;;;22.70;48.30;;;;;;5019938;28;20056;-88
2022/04/16 09:25:22;;;;;;;3.80;3.03;;;22.80;47.90;;;;;;5021739;28;20049;-89
2022/04/16 09:28:06;;;;;;;6.60;2.90;;;22.80;47.90;;;;;;5013639;28;20049;-89
2022/04/16 09:30:33;;;;;;;4.50;3.10;;;22.60;45.90;;;;;;5039349;28;20040;-90
2022/04/16 09:33:00;;;;;;;4.82;3.22;;;22.30;47.40;;;;;;5020677;28;20060;-89
2022/04/16 09:35:27;;;;;;;5.65;2.92;;;22.50;48.10;;;;;;5022543;28;20045;-89
2022/04/16 09:38:14;;;;;;;3.30;2.08;;;22.60;46.90;;;;;;5022847;28;20148;-88
2022/04/16 09:40:41;;;;;;;4.40;1.90;;;22.70;43.10;;;;;;5027677;28;20061;-88
2022/04/16 09:43:07;;;;;;;2.85;1.83;;;22.50;45.30;;;;;;5025663;28;20045;-89
2022/04/16 09:45:37;;;;;;;2.63;1.60;;;22.40;43.90;;;;;;5037937;28;20051;-91
2022/04/16 09:48:04;;;;;;;2.63;1.70;;;22.20;42.80;;;;;;5038442;28;20325;-89
2022/04/16 09:50:30;;;;;;;3.30;1.88;;;22.10;43.80;;;;;;5021222;28;20051;-89
2022/04/16 09:52:58;;;;;;;2.65;2.00;;;22.20;44.50;;;;;;5020470;28;20076;-89
2022/04/16 09:55:26;;;;;;;3.35;1.80;;;22.50;43.40;;;;;;5037016;28;20060;-88
2022/04/16 09:58:04;;;;;;;3.08;1.60;;;22.60;42.20;;;;;;5020075;28;20065;-90
2022/04/16 10:00:32;;;;;;;2.65;1.83;;;22.50;42.90;;;;;;5036711;28;20052;-88
2022/04/16 10:03:00;;;;;;;2.72;2.00;;;22.80;43.90;;;;;;5036758;28;20447;-89
2022/04/16 10:05:25;;;;;;;3.20;1.73;;;23.20;43.20;;;;;;5020628;28;20398;-88
2022/04/16 10:07:55;;;;;;;2.42;1.70;;;23.50;42.50;;;;;;5036658;28;20064;-90
2022/04/16 10:10:31;;;;;;;1.90;1.58;;;23.70;41.50;;;;;;5012651;28;20411;-89
2022/04/16 10:13:04;;;;;;;3.22;1.58;;;23.80;41.50;;;;;;5021921;28;20037;-89
2022/04/16 10:15:43;;;;;;;3.15;1.90;;;23.90;40.90;;;;;;5054528;28;20052;-89
2022/04/16 10:18:11;;;;;;;2.05;1.55;;;24.20;41.10;;;;;;5016653;28;20041;-89
2022/04/16 10:20:36;;;;;;;2.05;1.55;;;24.50;40.30;;;;;;5016887;28;20446;-90
2022/04/16 10:23:07;;;;;;;2.83;1.60;;;24.70;40.20;;;;;;5019225;28;20049;-89
2022/04/16 10:25:40;;;;;;;2.75;1.27;;;25.00;39.50;;;;;;5037294;28;20052;-89
2022/04/16 10:28:08;;;;;;;3.10;1.30;;;25.20;37.50;;;;;;5037383;28;20073;-87
2022/04/16 10:30:42;;;;;;;2.50;1.42;;;24.90;36.80;;;;;;5043065;28;20053;-88
2022/04/16 10:33:24;;;;;;;2.63;1.10;;;24.60;37.90;;;;;;5018822;28;20036;-88
2022/04/16 10:36:09;;;;;;;1.17;0.90;;;24.60;36.30;;;;;;5004668;28;20049;-89
2022/04/16 10:38:37;;;;;;;1.50;1.02;;;24.70;35.60;;;;;;5019901;28;20091;-88
2022/04/16 10:41:13;;;;;;;1.98;1.20;;;24.70;34.50;;;;;;5039176;28;20040;-87
2022/04/16 10:43:39;;;;;;;2.00;1.00;;;24.60;34.80;;;;;;5019366;28;20111;-88
2022/04/16 10:46:09;;;;;;;1.75;1.48;;;24.50;35.10;;;;;;5019334;28;20049;-88
2022/04/16 10:48:37;;;;;;;1.85;1.15;;;24.50;35.60;;;;;;5036188;28;20055;-89
2022/04/16 10:51:07;;;;;;;2.95;1.10;;;24.70;35.20;;;;;;5038727;28;20478;-88
2022/04/16 10:53:35;;;;;;;1.75;1.10;;;24.80;35.00;;;;;;5035447;28;20457;-89
2022/04/16 10:56:10;;;;;;;2.88;1.10;;;25.00;36.00;;;;;;5052428;28;20126;-89
2022/04/16 10:58:36;;;;;;;3.05;1.20;;;25.50;35.70;;;;;;5053619;28;20410;-89
2022/04/16 11:01:07;;;;;;;3.35;1.00;;;25.80;35.40;;;;;;5035438;28;20053;-90
2022/04/16 11:03:35;;;;;;;5.00;1.20;;;26.10;34.20;;;;;;5019719;28;20069;-89
2022/04/16 11:06:05;;;;;;;1.65;1.00;;;26.20;33.80;;;;;;5037316;28;20785;-90
2022/04/16 11:08:35;;;;;;;2.17;1.10;;;26.40;34.10;;;;;;5020026;28;20053;-90
2022/04/16 11:11:04;;;;;;;2.50;1.00;;;26.60;32.90;;;;;;5019206;28;20053;-90
2022/04/16 11:13:31;;;;;;;2.58;1.20;;;26.60;33.00;;;;;;5032134;28;20465;-90
2022/04/16 11:16:01;;;;;;;3.30;1.15;;;26.50;33.30;;;;;;5035460;28;20052;-90
2022/04/16 11:18:41;;;;;;;2.58;1.30;;;26.40;33.50;;;;;;5052480;28;20509;-90
2022/04/16 11:21:20;;;;;;;1.77;0.95;;;26.40;34.30;;;;;;5018352;28;20056;-89
2022/04/16 11:23:48;;;;;;;3.10;1.20;;;26.50;32.60;;;;;;5051969;28;20582;-89
2022/04/16 11:34:29;;;;;;;1.75;1.00;;;26.60;31.50;;;;;;5035241;28;20060;-90
2022/04/16 11:36:55;;;;;;;3.33;1.00;;;26.50;32.00;;;;;;5035122;28;20483;-89
2022/04/16 11:39:23;;;;;;;1.60;0.90;;;26.60;31.20;;;;;;5052364;28;20044;-91
2022/04/16 11:41:54;;;;;;;3.13;0.90;;;26.50;31.20;;;;;;5051532;28;20037;-90
2022/04/16 11:44:38;;;;;;;3.05;1.02;;;26.50;31.40;;;;;;5035397;28;20083;-90
2022/04/16 11:47:20;;;;;;;1.75;1.00;;;26.50;31.80;;;;;;5034432;28;20044;-89
2022/04/16 11:49:51;;;;;;;1.73;0.90;;;26.50;30.50;;;;;;5050651;28;20376;-90
2022/04/16 11:52:48;;;;;;;1.65;0.93;;;26.60;31.30;;;;;;5018429;28;20051;-89
2022/04/16 11:55:17;;;;;;;1.45;1.00;;;26.90;32.50;;;;;;5034003;28;20478;-90
2022/04/16 11:57:52;;;;;;;2.58;1.17;;;27.20;31.30;;;;;;5034793;28;20047;-90
2022/04/16 12:00:20;;;;;;;4.20;1.33;;;27.10;31.60;;;;;;5017918;28;20052;-89
2022/04/16 12:02:49;;;;;;;2.67;1.08;;;27.20;30.50;;;;;;5034762;28;20033;-90
2022/04/16 12:05:17;;;;;;;3.15;0.80;;;27.40;31.90;;;;;;5051355;28;20110;-89
2022/04/16 12:07:48;;;;;;;1.10;0.90;;;27.70;30.50;;;;;;5017716;28;20061;-90
2022/04/16 12:10:16;;;;;;;3.30;1.00;;;27.60;29.80;;;;;;5051465;28;20550;-90
2022/04/16 12:12:47;;;;;;;1.50;0.90;;;27.60;30.70;;;;;;5050990;28;20048;-90
2022/04/16 12:15:20;;;;;;;1.40;0.80;;;27.90;30.40;;;;;;5050857;28;20079;-90
2022/04/16 12:17:45;;;;;;;1.42;0.77;;;28.20;29.70;;;;;;5051246;28;20114;-90
2022/04/16 12:20:12;;;;;;;2.25;0.98;;;28.20;29.60;;;;;;5017096;28;20064;-90
2022/04/16 12:23:00;;;;;;;2.38;1.00;;;28.20;29.90;;;;;;5018111;28;20517;-91
2022/04/16 12:25:26;;;;;;;3.35;0.90;;;28.50;29.20;;;;;;5018124;28;20052;-90
2022/04/16 12:27:57;;;;;;;2.88;0.93;;;28.60;29.60;;;;;;5034515;28;20045;-88
2022/04/16 12:30:28;;;;;;;2.42;0.98;;;28.70;29.10;;;;;;5051234;28;20072;-86
2022/04/16 12:32:54;;;;;;;2.15;0.90;;;28.70;28.70;;;;;;5017639;28;20133;-87
2022/04/16 12:35:20;;;;;;;2.67;1.00;;;28.60;28.90;;;;;;5018022;28;20076;-88
2022/04/16 12:37:46;;;;;;;1.55;1.25;;;28.50;29.30;;;;;;5034774;28;20076;-87
2022/04/16 12:40:11;;;;;;;1.40;1.00;;;28.20;29.40;;;;;;5034079;28;20135;-86
2022/04/16 12:42:37;;;;;;;1.13;0.88;;;27.90;28.80;;;;;;5018025;28;20549;-87
2022/04/16 12:45:03;;;;;;;1.20;1.00;;;27.60;28.60;;;;;;5034612;28;20087;-87
2022/04/16 12:47:29;;;;;;;2.10;0.90;;;27.40;29.20;;;;;;5016908;28;20053;-87
2022/04/16 12:49:54;;;;;;;2.13;1.00;;;27.10;29.30;;;;;;5017496;28;20075;-87
2022/04/16 12:52:20;;;;;;;1.83;1.05;;;27.00;29.50;;;;;;5051788;28;20435;-88
2022/04/16 12:54:46;;;;;;;2.45;0.90;;;27.30;29.90;;;;;;5033310;28;20120;-88
2022/04/16 12:57:11;;;;;;;1.20;0.90;;;27.50;29.40;;;;;;5017647;28;20053;-88
2022/04/16 12:59:37;;;;;;;2.17;1.02;;;27.70;29.30;;;;;;5035122;28;20053;-88